Time;durP1;ratioP1;P1;durP2;ratioP2;P2;SDS_P1;SDS_P2;PMS_P1;PMS_P2;Temp;Humidity;BMP_temperature;BMP_pressure;BME280_temperature;BME280_humidity;BME280_pressure;Samples;Min_cycle;Max_cycle;Signal;HPM_P1;HPM_P2
2022/04/09 00:06:30;;;;;;;14.85;7.08;;;;;;;4.90;75.12;98173.20;739448;1153;114700;-75
2022/04/09 00:21:32;;;;;;;19.03;6.38;;;;;;;4.78;75.66;98163.03;740341;1153;114036;-74
2022/04/09 00:36:37;;;;;;;13.00;7.05;;;;;;;4.52;76.39;98170.77;738877;1153;114866;-74
2022/04/09 00:51:41;;;;;;;15.03;8.00;;;;;;;4.39;76.56;98165.13;740230;1153;114699;-75
2022/04/09 01:06:43;;;;;;;18.20;7.70;;;;;;;4.22;76.98;98179.71;739572;1153;114927;-73
2022/04/09 01:21:48;;;;;;;17.93;8.40;;;;;;;4.13;77.37;98179.63;739520;1154;113837;-73
2022/04/09 01:36:51;;;;;;;16.30;7.33;;;;;;;4.16;78.31;98175.93;739206;1154;114813;-73
2022/04/09 01:51:53;;;;;;;21.20;9.25;;;;;;;4.23;79.22;98176.16;739445;1153;115099;-74
2022/04/09 02:06:55;;;;;;;29.60;11.58;;;;;;;4.28;79.59;98187.73;738899;1155;114833;-75
2022/04/09 02:21:57;;;;;;;51.30;18.85;;;;;;;4.35;79.82;98195.75;739233;1155;114948;-74
2022/04/09 02:37:01;;;;;;;98.33;37.05;;;;;;;4.36;79.60;98206.97;740128;1152;114732;-75
2022/04/09 02:52:04;;;;;;;21.93;11.03;;;;;;;4.22;79.31;98200.48;739594;1153;115118;-75
2022/04/09 03:07:06;;;;;;;32.20;12.75;;;;;;;4.31;80.57;98209.98;739531;1155;115426;-81
2022/04/09 03:22:09;;;;;;;27.50;10.97;;;;;;;4.40;80.78;98219.49;739615;1155;116061;-77
2022/04/09 03:37:11;;;;;;;16.68;8.60;;;;;;;4.50;79.88;98227.23;740175;1152;114773;-73
2022/04/09 03:52:14;;;;;;;22.07;11.47;;;;;;;4.62;80.58;98233.04;741810;1155;114621;-74
2022/04/09 04:07:22;;;;;;;18.00;10.60;;;;;;;4.58;80.26;98242.89;739525;1154;114420;-74
2022/04/09 04:22:24;;;;;;;24.18;10.55;;;;;;;4.45;79.65;98250.23;739796;1154;115969;-74
2022/04/09 04:37:36;;;;;;;19.03;8.88;;;;;;;4.56;79.42;98264.78;739489;1152;115746;-74
2022/04/09 04:52:39;;;;;;;21.03;10.88;;;;;;;4.72;79.82;98287.51;739155;1153;115009;-74
2022/04/09 05:07:45;;;;;;;21.47;10.43;;;;;;;4.95;80.58;98311.30;739088;1153;115167;-76
2022/04/09 05:22:47;;;;;;;22.78;9.75;;;;;;;5.10;80.15;98330.59;739440;1154;114970;-72
2022/04/09 05:37:51;;;;;;;17.53;8.30;;;;;;;5.47;79.93;98350.42;739951;1153;114956;-73
2022/04/09 05:52:54;;;;;;;17.25;8.85;;;;;;;5.85;80.26;98371.05;739548;1153;115250;-74
2022/04/09 06:07:56;;;;;;;15.05;8.03;;;;;;;6.35;79.47;98372.20;739349;1153;115122;-79
2022/04/09 06:22:59;;;;;;;12.13;7.15;;;;;;;6.74;79.23;98397.77;739674;1155;114697;-76
2022/04/09 06:38:02;;;;;;;45.55;21.00;;;;;;;7.23;80.02;98406.73;739520;1153;115313;-75
2022/04/09 06:53:04;;;;;;;12.45;7.65;;;;;;;7.24;78.29;98426.63;739819;1153;114149;-78
2022/04/09 07:08:08;;;;;;;12.73;7.20;;;;;;;7.56;77.75;98433.72;740573;1153;114220;-74
2022/04/09 07:23:10;;;;;;;19.13;8.57;;;;;;;7.88;75.54;98447.77;740386;1154;114275;-72
2022/04/09 07:38:13;;;;;;;13.85;7.55;;;;;;;7.52;74.17;98481.95;740029;1153;114637;-73
2022/04/09 07:53:15;;;;;;;12.73;5.97;;;;;;;8.41;72.69;98495.25;739858;1155;115358;-76
2022/04/09 08:08:17;;;;;;;9.63;4.77;;;;;;;8.75;68.77;98515.17;739577;1155;114338;-73
2022/04/09 08:23:19;;;;;;;7.23;4.98;;;;;;;9.12;64.34;98539.91;739619;1152;114227;-72
2022/04/09 08:38:21;;;;;;;52.83;25.28;;;;;;;9.98;62.99;98578.47;740488;1155;114671;-72
2022/04/09 08:53:23;;;;;;;71.70;29.95;;;;;;;9.52;60.32;98613.22;739580;1152;114926;-72
2022/04/09 09:08:43;;;;;;;15.85;6.20;;;;;;;9.73;54.91;98651.92;740424;1153;115687;-74
2022/04/09 09:23:45;;;;;;;8.18;3.93;;;;;;;10.23;52.85;98664.80;739834;1152;114818;-72
2022/04/09 09:38:47;;;;;;;6.83;3.13;;;;;;;10.67;51.62;98679.13;739687;1155;114916;-72
2022/04/09 09:53:49;;;;;;;11.53;4.70;;;;;;;10.70;52.58;98691.89;739539;1152;114781;-73
2022/04/09 10:08:52;;;;;;;6.45;3.65;;;;;;;10.51;51.87;98706.28;740033;1153;114985;-73
2022/04/09 10:24:01;;;;;;;28.17;10.00;;;;;;;11.94;51.81;98700.24;741338;1155;114655;-79
2022/04/09 10:39:39;;;;;;;7.40;4.33;;;;;;;12.18;50.23;98727.25;740312;1152;114386;-79
2022/04/09 10:55:10;;;;;;;9.63;3.28;;;;;;;11.28;50.10;98723.73;740223;1155;114700;-80
2022/04/09 11:10:15;;;;;;;17.38;6.28;;;;;;;10.20;48.43;98767.33;741741;1154;114317;-80
2022/04/09 11:25:19;;;;;;;8.88;5.13;;;;;;;11.12;48.93;98748.30;740217;1153;114717;-80
2022/04/09 11:40:21;;;;;;;6.73;3.10;;;;;;;12.36;47.43;98795.20;742393;1153;113811;-80
2022/04/09 11:55:28;;;;;;;23.85;10.35;;;;;;;12.02;45.75;98822.05;740923;1153;115298;-80
2022/04/09 12:10:31;;;;;;;12.95;5.60;;;;;;;11.42;46.00;98846.34;741379;1155;114342;-82
2022/04/09 12:25:44;;;;;;;13.78;5.48;;;;;;;11.68;45.46;98871.44;740425;1152;115061;-81
2022/04/09 12:40:59;;;;;;;6.88;3.18;;;;;;;11.78;45.15;98892.20;739789;1155;114642;-74
2022/04/09 12:56:12;;;;;;;10.88;6.00;;;;;;;11.89;45.57;98883.07;740165;1152;113993;-84
2022/04/09 13:11:15;;;;;;;8.83;3.90;;;;;;;11.92;45.64;98890.63;740222;1153;114996;-75
2022/04/09 13:26:17;;;;;;;21.95;8.58;;;;;;;12.91;44.39;98947.48;740026;1154;115430;-74
2022/04/09 13:41:22;;;;;;;10.90;3.43;;;;;;;12.74;43.81;98923.17;740725;1153;114851;-74
2022/04/09 13:56:24;;;;;;;11.00;3.15;;;;;;;12.27;43.88;98933.86;740410;1153;115948;-80
2022/04/09 14:11:27;;;;;;;15.10;6.58;;;;;;;19.00;38.29;98928.52;740799;1152;116223;-74
2022/04/09 14:26:29;;;;;;;7.25;3.58;;;;;;;21.38;34.32;98935.61;740172;1153;115664;-73
2022/04/09 14:41:31;;;;;;;9.85;3.08;;;;;;;21.84;32.80;98948.97;740215;1153;114703;-77
2022/04/09 14:56:33;;;;;;;11.33;5.83;;;;;;;23.74;34.17;98937.22;740784;1155;115323;-73
2022/04/09 15:11:36;;;;;;;12.58;5.10;;;;;;;14.12;38.05;98955.66;740238;1155;114850;-73
2022/04/09 15:26:38;;;;;;;44.88;22.75;;;;;;;16.43;39.60;98971.13;740417;1153;115709;-73
2022/04/09 15:41:40;;;;;;;51.58;22.83;;;;;;;12.38;42.48;98966.78;740213;1153;116033;-74
2022/04/09 15:56:42;;;;;;;41.28;17.03;;;;;;;11.26;46.10;99028.42;740036;1155;115467;-74
2022/04/09 16:11:45;;;;;;;25.40;10.60;;;;;;;10.21;51.44;99036.28;740627;1153;116189;-76
2022/04/09 16:26:47;;;;;;;26.47;11.47;;;;;;;10.06;52.28;99062.32;740859;1153;115632;-73
2022/04/09 16:41:50;;;;;;;38.48;16.70;;;;;;;9.40;53.13;99065.56;740203;1155;115672;-72
2022/04/09 16:56:52;;;;;;;17.13;9.63;;;;;;;9.08;53.76;99074.06;740641;1153;115559;-73
2022/04/09 17:11:59;;;;;;;64.80;21.97;;;;;;;8.90;54.89;99074.95;740643;1152;115371;-71
2022/04/09 17:27:02;;;;;;;104.50;38.03;;;;;;;8.85;54.91;99097.32;739701;1155;115020;-73
2022/04/09 17:42:06;;;;;;;28.30;12.40;;;;;;;8.38;58.34;99141.03;739742;1153;114173;-73
2022/04/09 17:57:09;;;;;;;37.03;13.95;;;;;;;7.58;62.62;99143.41;739800;1152;115747;-70
2022/04/09 18:12:12;;;;;;;16.73;7.17;;;;;;;7.43;63.12;99159.53;740271;1152;115570;-72
2022/04/09 18:27:14;;;;;;;25.53;13.17;;;;;;;7.39;63.87;99175.60;740498;1155;115171;-71
2022/04/09 18:42:17;;;;;;;22.35;9.05;;;;;;;7.28;63.73;99197.47;740890;1153;115147;-72
2022/04/09 18:57:19;;;;;;;11.30;4.20;;;;;;;7.15;63.53;99216.86;740661;1153;114406;-71
2022/04/09 19:12:24;;;;;;;12.20;5.50;;;;;;;7.09;64.08;99235.66;741022;1153;115439;-71
2022/04/09 19:27:27;;;;;;;5.73;3.20;;;;;;;6.79;66.41;99244.44;740703;1154;114828;-73
2022/04/09 19:42:31;;;;;;;13.03;4.43;;;;;;;6.58;68.49;99265.41;740535;1154;114490;-73
2022/04/09 19:57:36;;;;;;;8.45;2.73;;;;;;;6.33;70.51;99249.30;741205;1154;114565;-72
2022/04/09 20:12:48;;;;;;;8.58;3.73;;;;;;;6.13;71.16;99259.66;740466;1153;114358;-72
2022/04/09 20:27:52;;;;;;;5.70;2.97;;;;;;;6.09;73.07;99265.27;740871;1153;115343;-72
2022/04/09 20:42:55;;;;;;;5.30;2.55;;;;;;;6.05;74.48;99267.30;740800;1155;114498;-72
2022/04/09 20:57:59;;;;;;;6.88;3.45;;;;;;;5.86;75.53;99290.61;741066;1152;113767;-72
2022/04/09 21:13:01;;;;;;;8.38;4.75;;;;;;;5.54;77.75;99294.13;740502;1152;114388;-72
2022/04/09 21:28:04;;;;;;;7.10;4.40;;;;;;;5.31;78.49;99307.25;741116;1155;114134;-71
2022/04/09 21:43:06;;;;;;;7.93;4.13;;;;;;;5.11;80.73;99319.28;741157;1152;115187;-71
2022/04/09 21:58:09;;;;;;;11.53;4.40;;;;;;;4.98;81.97;99332.42;741159;1154;114320;-72
2022/04/09 22:13:12;;;;;;;10.40;4.58;;;;;;;4.83;85.00;99347.48;740303;1152;114608;-71
2022/04/09 22:28:14;;;;;;;7.03;3.33;;;;;;;4.75;85.36;99365.42;739350;1153;115472;-72
2022/04/09 22:43:16;;;;;;;6.53;3.07;;;;;;;4.75;86.05;99371.46;739289;1152;114463;-72
2022/04/09 22:58:21;;;;;;;6.95;3.40;;;;;;;4.64;85.82;99374.06;739390;1153;115314;-71
2022/04/09 23:13:23;;;;;;;5.03;3.40;;;;;;;4.50;87.18;99381.16;739538;1153;115047;-71
2022/04/09 23:28:25;;;;;;;8.68;3.65;;;;;;;4.38;87.42;99396.84;739320;1153;114655;-71
2022/04/09 23:43:27;;;;;;;5.28;3.10;;;;;;;4.24;87.53;99418.69;739173;1155;114794;-71
2022/04/09 23:58:30;;;;;;;6.90;3.88;;;;;;;3.99;88.93;99425.70;738758;1155;115057;-71
